sensor_id;sensor_type;location;lat;lon;timestamp;temperature;humidity
35129;DHT22;21301;43.626;10.580;2023-04-03T00:00:43;10.00;99.90
35129;DHT22;21301;43.626;10.580;2023-04-03T00:03:09;10.20;99.90
35129;DHT22;21301;43.626;10.580;2023-04-03T00:05:35;10.30;99.90
35129;DHT22;21301;43.626;10.580;2023-04-03T00:08:01;10.30;99.90
35129;DHT22;21301;43.626;10.580;2023-04-03T00:10:28;9.90;99.90
35129;DHT22;21301;43.626;10.580;2023-04-03T00:12:54;10.20;99.90
35129;DHT22;21301;43.626;10.580;2023-04-03T00:15:20;9.50;99.90
35129;DHT22;21301;43.626;10.580;2023-04-03T00:17:46;9.70;99.90
35129;DHT22;21301;43.626;10.580;2023-04-03T00:20:12;9.60;99.90
35129;DHT22;21301;43.626;10.580;2023-04-03T00:22:37;9.60;99.90
35129;DHT22;21301;43.626;10.580;2023-04-03T00:25:04;9.50;99.90
35129;DHT22;21301;43.626;10.580;2023-04-03T00:27:30;9.50;99.90
35129;DHT22;21301;43.626;10.580;2023-04-03T00:29:56;9.50;99.90
35129;DHT22;21301;43.626;10.580;2023-04-03T00:32:21;9.50;99.90
35129;DHT22;21301;43.626;10.580;2023-04-03T00:34:47;9.30;99.90
35129;DHT22;21301;43.626;10.580;2023-04-03T00:37:13;9.30;99.90
35129;DHT22;21301;43.626;10.580;2023-04-03T00:39:39;9.50;99.90
35129;DHT22;21301;43.626;10.580;2023-04-03T00:42:05;9.60;99.90
35129;DHT22;21301;43.626;10.580;2023-04-03T00:47:00;10.00;99.90
35129;DHT22;21301;43.626;10.580;2023-04-03T00:49:28;10.20;99.90
35129;DHT22;21301;43.626;10.580;2023-04-03T00:51:54;10.20;99.90
35129;DHT22;21301;43.626;10.580;2023-04-03T00:54:21;10.30;99.90
35129;DHT22;21301;43.626;10.580;2023-04-03T00:56:48;10.30;99.90
35129;DHT22;21301;43.626;10.580;2023-04-03T00:59:20;10.30;99.90
35129;DHT22;21301;43.626;10.580;2023-04-03T01:01:49;10.10;99.90
35129;DHT22;21301;43.626;10.580;2023-04-03T01:04:38;9.90;99.90
35129;DHT22;21301;43.626;10.580;2023-04-03T01:07:11;9.30;99.90
35129;DHT22;21301;43.626;10.580;2023-04-03T01:09:39;9.40;99.90
35129;DHT22;21301;43.626;10.580;2023-04-03T01:12:27;9.70;99.90
35129;DHT22;21301;43.626;10.580;2023-04-03T01:14:59;9.60;99.90
35129;DHT22;21301;43.626;10.580;2023-04-03T01:17:35;9.70;99.90
35129;DHT22;21301;43.626;10.580;2023-04-03T01:25:45;9.10;99.90
35129;DHT22;21301;43.626;10.580;2023-04-03T01:28:19;9.00;99.90
35129;DHT22;21301;43.626;10.580;2023-04-03T01:33:27;9.10;99.90
35129;DHT22;21301;43.626;10.580;2023-04-03T01:35:52;9.40;99.90
35129;DHT22;21301;43.626;10.580;2023-04-03T01:38:18;9.40;99.90
35129;DHT22;21301;43.626;10.580;2023-04-03T01:40:44;9.50;99.90
35129;DHT22;21301;43.626;10.580;2023-04-03T01:43:11;9.80;99.90
35129;DHT22;21301;43.626;10.580;2023-04-03T01:45:37;10.00;99.90
35129;DHT22;21301;43.626;10.580;2023-04-03T01:48:03;10.00;99.90
35129;DHT22;21301;43.626;10.580;2023-04-03T01:50:30;10.00;99.90
35129;DHT22;21301;43.626;10.580;2023-04-03T01:52:55;10.00;99.90
35129;DHT22;21301;43.626;10.580;2023-04-03T01:55:22;9.90;99.90
35129;DHT22;21301;43.626;10.580;2023-04-03T01:57:50;9.90;99.90
35129;DHT22;21301;43.626;10.580;2023-04-03T02:00:23;9.80;99.90
35129;DHT22;21301;43.626;10.580;2023-04-03T02:02:49;9.30;99.90
35129;DHT22;21301;43.626;10.580;2023-04-03T02:05:16;9.20;99.90
35129;DHT22;21301;43.626;10.580;2023-04-03T02:07:42;9.40;99.90
35129;DHT22;21301;43.626;10.580;2023-04-03T02:10:08;9.50;99.90
35129;DHT22;21301;43.626;10.580;2023-04-03T02:12:33;9.60;99.90
35129;DHT22;21301;43.626;10.580;2023-04-03T02:14:59;9.40;99.90
35129;DHT22;21301;43.626;10.580;2023-04-03T02:17:26;9.70;99.90
35129;DHT22;21301;43.626;10.580;2023-04-03T02:19:54;9.40;99.90
35129;DHT22;21301;43.626;10.580;2023-04-03T02:22:20;9.20;99.90
35129;DHT22;21301;43.626;10.580;2023-04-03T02:24:45;9.00;99.90
35129;DHT22;21301;43.626;10.580;2023-04-03T02:27:12;8.80;99.90
35129;DHT22;21301;43.626;10.580;2023-04-03T02:29:38;8.70;99.90
35129;DHT22;21301;43.626;10.580;2023-04-03T02:32:04;8.90;99.90
35129;DHT22;21301;43.626;10.580;2023-04-03T02:34:31;9.00;99.90
35129;DHT22;21301;43.626;10.580;2023-04-03T02:37:00;9.00;99.90
35129;DHT22;21301;43.626;10.580;2023-04-03T02:39:26;8.90;99.90
35129;DHT22;21301;43.626;10.580;2023-04-03T02:41:52;8.90;99.90
35129;DHT22;21301;43.626;10.580;2023-04-03T02:44:22;8.60;99.90
35129;DHT22;21301;43.626;10.580;2023-04-03T02:46:49;8.70;99.90
35129;DHT22;21301;43.626;10.580;2023-04-03T02:49:16;8.20;99.90
35129;DHT22;21301;43.626;10.580;2023-04-03T02:51:42;8.00;99.90
35129;DHT22;21301;43.626;10.580;2023-04-03T02:54:08;7.80;99.90
35129;DHT22;21301;43.626;10.580;2023-04-03T02:56:37;8.10;99.90
35129;DHT22;21301;43.626;10.580;2023-04-03T02:59:03;8.40;99.90
35129;DHT22;21301;43.626;10.580;2023-04-03T03:01:30;8.40;99.90
35129;DHT22;21301;43.626;10.580;2023-04-03T03:03:59;8.50;99.90
35129;DHT22;21301;43.626;10.580;2023-04-03T03:06:25;8.70;99.90
35129;DHT22;21301;43.626;10.580;2023-04-03T03:08:52;8.70;99.90
35129;DHT22;21301;43.626;10.580;2023-04-03T03:11:17;9.00;99.90
35129;DHT22;21301;43.626;10.580;2023-04-03T03:13:43;9.00;99.90
35129;DHT22;21301;43.626;10.580;2023-04-03T03:16:09;9.20;99.90
35129;DHT22;21301;43.626;10.580;2023-04-03T03:18:35;9.20;99.90
35129;DHT22;21301;43.626;10.580;2023-04-03T03:21:03;9.30;99.90
35129;DHT22;21301;43.626;10.580;2023-04-03T03:23:31;9.40;99.90
35129;DHT22;21301;43.626;10.580;2023-04-03T03:26:06;9.50;99.90
35129;DHT22;21301;43.626;10.580;2023-04-03T03:28:34;9.30;99.90
35129;DHT22;21301;43.626;10.580;2023-04-03T03:31:01;9.30;99.90
35129;DHT22;21301;43.626;10.580;2023-04-03T03:33:26;9.40;99.90
35129;DHT22;21301;43.626;10.580;2023-04-03T03:35:53;9.50;99.90
35129;DHT22;21301;43.626;10.580;2023-04-03T03:38:20;9.50;99.90
35129;DHT22;21301;43.626;10.580;2023-04-03T03:40:49;9.60;99.90
35129;DHT22;21301;43.626;10.580;2023-04-03T03:43:18;9.30;99.90
35129;DHT22;21301;43.626;10.580;2023-04-03T03:45:50;9.10;99.90
35129;DHT22;21301;43.626;10.580;2023-04-03T03:48:17;8.90;99.90
35129;DHT22;21301;43.626;10.580;2023-04-03T03:50:43;8.70;99.90
35129;DHT22;21301;43.626;10.580;2023-04-03T03:53:09;8.90;99.90
35129;DHT22;21301;43.626;10.580;2023-04-03T03:55:35;9.00;99.90
35129;DHT22;21301;43.626;10.580;2023-04-03T03:58:01;9.10;99.90
35129;DHT22;21301;43.626;10.580;2023-04-03T04:00:29;8.80;99.90
35129;DHT22;21301;43.626;10.580;2023-04-03T04:02:56;8.70;99.90
35129;DHT22;21301;43.626;10.580;2023-04-03T04:05:23;8.60;99.90
35129;DHT22;21301;43.626;10.580;2023-04-03T04:07:51;8.40;99.90
35129;DHT22;21301;43.626;10.580;2023-04-03T04:10:17;8.20;99.90
35129;DHT22;21301;43.626;10.580;2023-04-03T04:12:44;8.20;99.90
35129;DHT22;21301;43.626;10.580;2023-04-03T04:15:11;8.20;99.90
35129;DHT22;21301;43.626;10.580;2023-04-03T04:17:37;8.10;99.90
35129;DHT22;21301;43.626;10.580;2023-04-03T04:20:06;7.90;99.90
35129;DHT22;21301;43.626;10.580;2023-04-03T04:22:33;7.80;99.90
35129;DHT22;21301;43.626;10.580;2023-04-03T04:24:58;7.70;99.90
35129;DHT22;21301;43.626;10.580;2023-04-03T04:27:25;7.20;99.90
35129;DHT22;21301;43.626;10.580;2023-04-03T04:29:51;7.10;99.90
35129;DHT22;21301;43.626;10.580;2023-04-03T04:32:18;7.00;99.90
35129;DHT22;21301;43.626;10.580;2023-04-03T04:34:44;7.00;99.90
35129;DHT22;21301;43.626;10.580;2023-04-03T04:37:10;7.30;99.90
35129;DHT22;21301;43.626;10.580;2023-04-03T04:39:36;7.70;99.90
35129;DHT22;21301;43.626;10.580;2023-04-03T04:42:03;7.70;99.90
35129;DHT22;21301;43.626;10.580;2023-04-03T04:44:31;7.70;99.90
35129;DHT22;21301;43.626;10.580;2023-04-03T04:46:56;7.70;99.90
35129;DHT22;21301;43.626;10.580;2023-04-03T04:49:22;8.00;99.90
35129;DHT22;21301;43.626;10.580;2023-04-03T04:51:49;8.30;99.90
35129;DHT22;21301;43.626;10.580;2023-04-03T04:54:17;8.60;99.90
35129;DHT22;21301;43.626;10.580;2023-04-03T04:56:44;8.70;99.90
35129;DHT22;21301;43.626;10.580;2023-04-03T04:59:11;8.80;99.90
35129;DHT22;21301;43.626;10.580;2023-04-03T05:01:37;9.00;99.90
35129;DHT22;21301;43.626;10.580;2023-04-03T05:04:08;8.80;99.90
35129;DHT22;21301;43.626;10.580;2023-04-03T05:06:34;8.70;99.90
35129;DHT22;21301;43.626;10.580;2023-04-03T05:09:04;8.80;99.90
35129;DHT22;21301;43.626;10.580;2023-04-03T05:11:31;8.60;99.90
35129;DHT22;21301;43.626;10.580;2023-04-03T05:13:57;8.60;99.90
35129;DHT22;21301;43.626;10.580;2023-04-03T05:16:25;8.30;99.90
35129;DHT22;21301;43.626;10.580;2023-04-03T05:18:51;7.70;99.90
35129;DHT22;21301;43.626;10.580;2023-04-03T05:21:20;7.20;99.90
35129;DHT22;21301;43.626;10.580;2023-04-03T05:23:50;7.50;99.90
35129;DHT22;21301;43.626;10.580;2023-04-03T05:26:16;7.30;99.90
35129;DHT22;21301;43.626;10.580;2023-04-03T05:28:43;7.40;99.90
35129;DHT22;21301;43.626;10.580;2023-04-03T05:31:10;7.90;99.90
35129;DHT22;21301;43.626;10.580;2023-04-03T05:33:37;8.40;99.90
35129;DHT22;21301;43.626;10.580;2023-04-03T05:36:06;9.00;99.90
35129;DHT22;21301;43.626;10.580;2023-04-03T05:38:35;10.30;99.90
35129;DHT22;21301;43.626;10.580;2023-04-03T05:41:01;10.90;99.90
35129;DHT22;21301;43.626;10.580;2023-04-03T05:43:27;12.40;99.90
35129;DHT22;21301;43.626;10.580;2023-04-03T05:45:54;13.60;99.90
35129;DHT22;21301;43.626;10.580;2023-04-03T05:48:22;14.20;99.90
35129;DHT22;21301;43.626;10.580;2023-04-03T05:50:48;14.90;99.90
35129;DHT22;21301;43.626;10.580;2023-04-03T05:53:27;15.60;99.90
35129;DHT22;21301;43.626;10.580;2023-04-03T05:55:57;16.10;99.90
35129;DHT22;21301;43.626;10.580;2023-04-03T05:58:24;16.20;99.90
35129;DHT22;21301;43.626;10.580;2023-04-03T06:00:51;16.30;99.90
35129;DHT22;21301;43.626;10.580;2023-04-03T06:03:17;16.50;99.90
35129;DHT22;21301;43.626;10.580;2023-04-03T06:05:43;16.10;99.90
35129;DHT22;21301;43.626;10.580;2023-04-03T06:08:10;16.20;99.90
35129;DHT22;21301;43.626;10.580;2023-04-03T06:10:36;17.40;99.90
35129;DHT22;21301;43.626;10.580;2023-04-03T06:13:02;18.00;99.90
35129;DHT22;21301;43.626;10.580;2023-04-03T06:15:28;18.30;99.90
35129;DHT22;21301;43.626;10.580;2023-04-03T06:17:54;18.40;99.90
35129;DHT22;21301;43.626;10.580;2023-04-03T06:20:21;18.00;99.90
35129;DHT22;21301;43.626;10.580;2023-04-03T06:22:48;17.80;99.90
35129;DHT22;21301;43.626;10.580;2023-04-03T06:25:14;17.50;99.90
35129;DHT22;21301;43.626;10.580;2023-04-03T06:27:40;17.40;99.90
35129;DHT22;21301;43.626;10.580;2023-04-03T06:30:06;17.20;99.90
35129;DHT22;21301;43.626;10.580;2023-04-03T06:32:32;17.60;99.90
35129;DHT22;21301;43.626;10.580;2023-04-03T06:34:58;17.70;99.90
35129;DHT22;21301;43.626;10.580;2023-04-03T06:37:24;17.80;99.90
35129;DHT22;21301;43.626;10.580;2023-04-03T06:39:54;17.60;99.90
35129;DHT22;21301;43.626;10.580;2023-04-03T06:42:21;17.80;99.90
35129;DHT22;21301;43.626;10.580;2023-04-03T06:44:54;18.00;99.90
35129;DHT22;21301;43.626;10.580;2023-04-03T06:47:19;17.90;99.90
35129;DHT22;21301;43.626;10.580;2023-04-03T06:49:45;18.30;99.90
35129;DHT22;21301;43.626;10.580;2023-04-03T06:52:11;18.60;99.90
35129;DHT22;21301;43.626;10.580;2023-04-03T06:54:39;18.80;99.90
35129;DHT22;21301;43.626;10.580;2023-04-03T06:57:04;18.00;99.90
35129;DHT22;21301;43.626;10.580;2023-04-03T06:59:30;17.70;99.90
35129;DHT22;21301;43.626;10.580;2023-04-03T07:01:56;18.00;99.90
35129;DHT22;21301;43.626;10.580;2023-04-03T07:04:24;18.20;99.90
35129;DHT22;21301;43.626;10.580;2023-04-03T07:06:50;19.00;99.90
35129;DHT22;21301;43.626;10.580;2023-04-03T07:09:16;19.30;99.90
35129;DHT22;21301;43.626;10.580;2023-04-03T07:11:42;19.20;99.90
35129;DHT22;21301;43.626;10.580;2023-04-03T07:14:08;19.20;99.90
35129;DHT22;21301;43.626;10.580;2023-04-03T07:16:34;19.60;99.90
35129;DHT22;21301;43.626;10.580;2023-04-03T07:19:01;19.90;99.90
35129;DHT22;21301;43.626;10.580;2023-04-03T07:21:27;20.40;99.90
35129;DHT22;21301;43.626;10.580;2023-04-03T07:23:53;20.70;99.90
35129;DHT22;21301;43.626;10.580;2023-04-03T07:26:20;20.90;99.90
35129;DHT22;21301;43.626;10.580;2023-04-03T07:28:49;20.60;99.90
35129;DHT22;21301;43.626;10.580;2023-04-03T07:31:16;20.70;99.90
35129;DHT22;21301;43.626;10.580;2023-04-03T07:33:44;20.50;99.90
35129;DHT22;21301;43.626;10.580;2023-04-03T07:36:15;20.50;99.50
35129;DHT22;21301;43.626;10.580;2023-04-03T07:38:41;19.80;97.80
35129;DHT22;21301;43.626;10.580;2023-04-03T07:41:07;18.80;97.60
35129;DHT22;21301;43.626;10.580;2023-04-03T07:43:36;18.20;97.90
35129;DHT22;21301;43.626;10.580;2023-04-03T07:46:04;17.90;97.70
35129;DHT22;21301;43.626;10.580;2023-04-03T07:48:30;17.80;97.90
35129;DHT22;21301;43.626;10.580;2023-04-03T07:50:59;17.80;97.50
35129;DHT22;21301;43.626;10.580;2023-04-03T07:53:26;17.70;97.40
35129;DHT22;21301;43.626;10.580;2023-04-03T07:55:52;17.60;97.30
35129;DHT22;21301;43.626;10.580;2023-04-03T07:58:21;17.90;97.80
35129;DHT22;21301;43.626;10.580;2023-04-03T08:00:47;18.20;97.70
35129;DHT22;21301;43.626;10.580;2023-04-03T08:03:14;18.60;97.60
35129;DHT22;21301;43.626;10.580;2023-04-03T08:05:43;18.40;96.40
35129;DHT22;21301;43.626;10.580;2023-04-03T08:08:11;18.20;97.20
35129;DHT22;21301;43.626;10.580;2023-04-03T08:10:37;17.90;96.90
35129;DHT22;21301;43.626;10.580;2023-04-03T08:13:04;17.90;96.80
35129;DHT22;21301;43.626;10.580;2023-04-03T08:15:31;18.00;97.30
35129;DHT22;21301;43.626;10.580;2023-04-03T08:17:58;18.00;96.90
35129;DHT22;21301;43.626;10.580;2023-04-03T08:20:24;17.90;96.70
35129;DHT22;21301;43.626;10.580;2023-04-03T08:22:50;17.70;96.40
35129;DHT22;21301;43.626;10.580;2023-04-03T08:25:16;17.70;96.90
35129;DHT22;21301;43.626;10.580;2023-04-03T08:27:43;17.60;96.20
35129;DHT22;21301;43.626;10.580;2023-04-03T08:30:09;17.50;96.60
35129;DHT22;21301;43.626;10.580;2023-04-03T08:32:35;17.80;96.70
35129;DHT22;21301;43.626;10.580;2023-04-03T08:35:02;17.80;96.60
35129;DHT22;21301;43.626;10.580;2023-04-03T08:37:46;17.90;96.90
35129;DHT22;21301;43.626;10.580;2023-04-03T08:40:16;17.80;96.70
35129;DHT22;21301;43.626;10.580;2023-04-03T08:43:09;17.50;96.70
35129;DHT22;21301;43.626;10.580;2023-04-03T08:45:50;17.40;96.50
35129;DHT22;21301;43.626;10.580;2023-04-03T08:48:21;17.60;96.90
35129;DHT22;21301;43.626;10.580;2023-04-03T08:50:57;17.30;96.60
35129;DHT22;21301;43.626;10.580;2023-04-03T08:53:30;17.50;96.70
35129;DHT22;21301;43.626;10.580;2023-04-03T08:56:02;17.60;96.50
35129;DHT22;21301;43.626;10.580;2023-04-03T08:58:36;17.70;96.70
35129;DHT22;21301;43.626;10.580;2023-04-03T09:01:43;18.00;96.70
35129;DHT22;21301;43.626;10.580;2023-04-03T09:04:16;18.10;96.00
35129;DHT22;21301;43.626;10.580;2023-04-03T09:06:54;18.00;95.80
35129;DHT22;21301;43.626;10.580;2023-04-03T09:12:27;18.10;96.00
35129;DHT22;21301;43.626;10.580;2023-04-03T09:15:02;18.00;95.90
35129;DHT22;21301;43.626;10.580;2023-04-03T09:19:58;18.10;96.30
35129;DHT22;21301;43.626;10.580;2023-04-03T09:22:32;18.30;96.40
35129;DHT22;21301;43.626;10.580;2023-04-03T09:25:04;18.50;95.90
35129;DHT22;21301;43.626;10.580;2023-04-03T09:27:31;18.40;96.10
35129;DHT22;21301;43.626;10.580;2023-04-03T09:29:57;18.50;96.10
35129;DHT22;21301;43.626;10.580;2023-04-03T09:32:35;18.00;96.10
35129;DHT22;21301;43.626;10.580;2023-04-03T09:39:03;18.00;95.50
35129;DHT22;21301;43.626;10.580;2023-04-03T09:41:30;18.20;95.50
35129;DHT22;21301;43.626;10.580;2023-04-03T09:43:57;18.40;96.00
35129;DHT22;21301;43.626;10.580;2023-04-03T09:46:33;18.40;95.80
35129;DHT22;21301;43.626;10.580;2023-04-03T09:49:04;18.40;95.60
35129;DHT22;21301;43.626;10.580;2023-04-03T09:51:31;18.50;95.40
35129;DHT22;21301;43.626;10.580;2023-04-03T09:53:58;18.80;95.50
35129;DHT22;21301;43.626;10.580;2023-04-03T09:56:28;18.70;95.20
35129;DHT22;21301;43.626;10.580;2023-04-03T10:01:32;18.80;95.40
35129;DHT22;21301;43.626;10.580;2023-04-03T10:04:16;18.70;95.00
35129;DHT22;21301;43.626;10.580;2023-04-03T10:06:48;19.00;95.00
35129;DHT22;21301;43.626;10.580;2023-04-03T10:09:28;19.30;95.30
35129;DHT22;21301;43.626;10.580;2023-04-03T10:14:22;19.20;94.50
35129;DHT22;21301;43.626;10.580;2023-04-03T10:16:59;19.20;94.70
35129;DHT22;21301;43.626;10.580;2023-04-03T10:28:02;18.60;94.80
35129;DHT22;21301;43.626;10.580;2023-04-03T10:42:05;18.30;94.50
35129;DHT22;21301;43.626;10.580;2023-04-03T10:48:35;18.80;93.90
35129;DHT22;21301;43.626;10.580;2023-04-03T10:58:49;19.00;94.10
35129;DHT22;21301;43.626;10.580;2023-04-03T11:01:22;18.70;94.10
35129;DHT22;21301;43.626;10.580;2023-04-03T11:03:53;18.50;94.60
35129;DHT22;21301;43.626;10.580;2023-04-03T11:06:23;18.60;94.90
35129;DHT22;21301;43.626;10.580;2023-04-03T11:11:38;19.40;94.80
35129;DHT22;21301;43.626;10.580;2023-04-03T11:16:53;19.10;94.20
35129;DHT22;21301;43.626;10.580;2023-04-03T11:22:09;19.20;94.20
35129;DHT22;21301;43.626;10.580;2023-04-03T11:24:39;19.00;94.20
35129;DHT22;21301;43.626;10.580;2023-04-03T11:27:15;18.80;94.30
35129;DHT22;21301;43.626;10.580;2023-04-03T11:29:44;18.90;94.90
35129;DHT22;21301;43.626;10.580;2023-04-03T11:35:05;19.20;93.90
35129;DHT22;21301;43.626;10.580;2023-04-03T11:37:50;19.50;94.20
35129;DHT22;21301;43.626;10.580;2023-04-03T11:49:56;19.50;92.70
35129;DHT22;21301;43.626;10.580;2023-04-03T11:58:03;19.20;93.20
35129;DHT22;21301;43.626;10.580;2023-04-03T12:19:34;18.80;93.00
35129;DHT22;21301;43.626;10.580;2023-04-03T12:24:33;19.00;93.50
35129;DHT22;21301;43.626;10.580;2023-04-03T12:46:17;18.60;92.40
35129;DHT22;21301;43.626;10.580;2023-04-03T12:48:57;18.40;91.90
35129;DHT22;21301;43.626;10.580;2023-04-03T12:51:38;18.60;92.60
35129;DHT22;21301;43.626;10.580;2023-04-03T12:54:35;18.40;92.40
35129;DHT22;21301;43.626;10.580;2023-04-03T12:57:21;18.40;93.00
35129;DHT22;21301;43.626;10.580;2023-04-03T12:59:47;18.50;92.50
35129;DHT22;21301;43.626;10.580;2023-04-03T13:02:28;18.90;92.60
35129;DHT22;21301;43.626;10.580;2023-04-03T13:04:57;19.00;91.70
35129;DHT22;21301;43.626;10.580;2023-04-03T13:07:32;18.80;92.70
35129;DHT22;21301;43.626;10.580;2023-04-03T13:10:01;18.50;92.20
35129;DHT22;21301;43.626;10.580;2023-04-03T13:12:27;18.50;92.30
35129;DHT22;21301;43.626;10.580;2023-04-03T13:14:59;18.30;92.70
35129;DHT22;21301;43.626;10.580;2023-04-03T13:17:26;18.40;92.90
35129;DHT22;21301;43.626;10.580;2023-04-03T13:19:53;18.50;92.80
35129;DHT22;21301;43.626;10.580;2023-04-03T13:22:35;18.60;92.30
35129;DHT22;21301;43.626;10.580;2023-04-03T13:25:07;18.40;91.60
35129;DHT22;21301;43.626;10.580;2023-04-03T13:27:34;18.40;91.50
35129;DHT22;21301;43.626;10.580;2023-04-03T13:30:01;18.40;91.90
35129;DHT22;21301;43.626;10.580;2023-04-03T13:32:30;18.50;91.60
35129;DHT22;21301;43.626;10.580;2023-04-03T13:34:57;18.40;91.90
35129;DHT22;21301;43.626;10.580;2023-04-03T13:37:28;18.30;91.80
35129;DHT22;21301;43.626;10.580;2023-04-03T13:42:37;18.20;92.30
35129;DHT22;21301;43.626;10.580;2023-04-03T13:45:24;18.30;91.80
35129;DHT22;21301;43.626;10.580;2023-04-03T13:47:53;18.60;91.90
35129;DHT22;21301;43.626;10.580;2023-04-03T13:50:21;18.50;92.10
35129;DHT22;21301;43.626;10.580;2023-04-03T13:52:49;18.30;92.00
35129;DHT22;21301;43.626;10.580;2023-04-03T14:00:39;18.40;91.90
35129;DHT22;21301;43.626;10.580;2023-04-03T14:03:24;18.40;91.90
35129;DHT22;21301;43.626;10.580;2023-04-03T14:05:50;18.60;91.80
35129;DHT22;21301;43.626;10.580;2023-04-03T14:08:17;18.80;91.10
35129;DHT22;21301;43.626;10.580;2023-04-03T14:10:44;18.40;90.30
35129;DHT22;21301;43.626;10.580;2023-04-03T14:13:14;18.40;91.00
35129;DHT22;21301;43.626;10.580;2023-04-03T14:15:41;18.20;91.20
35129;DHT22;21301;43.626;10.580;2023-04-03T14:18:15;18.20;90.80
35129;DHT22;21301;43.626;10.580;2023-04-03T14:20:41;18.30;90.80
35129;DHT22;21301;43.626;10.580;2023-04-03T14:23:08;18.30;91.10
35129;DHT22;21301;43.626;10.580;2023-04-03T14:25:35;18.30;90.40
35129;DHT22;21301;43.626;10.580;2023-04-03T14:28:01;18.40;90.80
35129;DHT22;21301;43.626;10.580;2023-04-03T14:30:32;18.30;90.40
35129;DHT22;21301;43.626;10.580;2023-04-03T14:32:58;18.30;90.50
35129;DHT22;21301;43.626;10.580;2023-04-03T14:35:26;18.40;90.80
35129;DHT22;21301;43.626;10.580;2023-04-03T14:37:53;18.20;90.50
35129;DHT22;21301;43.626;10.580;2023-04-03T14:40:24;18.20;90.40
35129;DHT22;21301;43.626;10.580;2023-04-03T14:42:50;18.20;90.10
35129;DHT22;21301;43.626;10.580;2023-04-03T14:45:17;18.10;90.10
35129;DHT22;21301;43.626;10.580;2023-04-03T14:47:49;18.30;90.30
35129;DHT22;21301;43.626;10.580;2023-04-03T14:50:23;18.10;90.10
35129;DHT22;21301;43.626;10.580;2023-04-03T14:52:51;18.20;90.10
35129;DHT22;21301;43.626;10.580;2023-04-03T14:55:19;18.00;89.40
35129;DHT22;21301;43.626;10.580;2023-04-03T14:57:45;18.00;90.00
35129;DHT22;21301;43.626;10.580;2023-04-03T15:00:14;18.00;90.50
35129;DHT22;21301;43.626;10.580;2023-04-03T15:02:41;18.00;89.90
35129;DHT22;21301;43.626;10.580;2023-04-03T15:05:11;18.10;90.10
35129;DHT22;21301;43.626;10.580;2023-04-03T15:07:42;18.00;89.10
35129;DHT22;21301;43.626;10.580;2023-04-03T15:12:40;18.10;88.80
35129;DHT22;21301;43.626;10.580;2023-04-03T15:15:06;18.30;89.20
35129;DHT22;21301;43.626;10.580;2023-04-03T15:17:34;18.30;88.40
35129;DHT22;21301;43.626;10.580;2023-04-03T15:20:01;18.30;87.80
35129;DHT22;21301;43.626;10.580;2023-04-03T15:22:27;18.20;87.00
35129;DHT22;21301;43.626;10.580;2023-04-03T15:24:52;18.20;87.50
35129;DHT22;21301;43.626;10.580;2023-04-03T15:27:18;18.20;87.10
35129;DHT22;21301;43.626;10.580;2023-04-03T15:29:44;18.20;87.40
35129;DHT22;21301;43.626;10.580;2023-04-03T15:32:11;18.20;87.10
35129;DHT22;21301;43.626;10.580;2023-04-03T15:34:38;18.30;87.30
35129;DHT22;21301;43.626;10.580;2023-04-03T15:37:04;18.30;87.00
35129;DHT22;21301;43.626;10.580;2023-04-03T15:39:29;18.20;87.00
35129;DHT22;21301;43.626;10.580;2023-04-03T15:41:55;18.10;88.00
35129;DHT22;21301;43.626;10.580;2023-04-03T15:44:25;18.10;87.20
35129;DHT22;21301;43.626;10.580;2023-04-03T15:46:51;18.00;87.90
35129;DHT22;21301;43.626;10.580;2023-04-03T15:49:18;17.90;87.70
35129;DHT22;21301;43.626;10.580;2023-04-03T15:51:45;17.90;87.60
35129;DHT22;21301;43.626;10.580;2023-04-03T15:54:11;18.00;87.70
35129;DHT22;21301;43.626;10.580;2023-04-03T15:56:37;18.00;87.40
35129;DHT22;21301;43.626;10.580;2023-04-03T15:59:03;17.90;87.00
35129;DHT22;21301;43.626;10.580;2023-04-03T16:01:29;17.80;86.60
35129;DHT22;21301;43.626;10.580;2023-04-03T16:03:55;17.80;86.10
35129;DHT22;21301;43.626;10.580;2023-04-03T16:06:21;17.80;86.20
35129;DHT22;21301;43.626;10.580;2023-04-03T16:08:49;17.60;84.20
35129;DHT22;21301;43.626;10.580;2023-04-03T16:11:15;17.50;84.50
35129;DHT22;21301;43.626;10.580;2023-04-03T16:13:41;17.50;84.10
35129;DHT22;21301;43.626;10.580;2023-04-03T16:16:08;17.40;84.10
35129;DHT22;21301;43.626;10.580;2023-04-03T16:18:35;17.30;84.20
35129;DHT22;21301;43.626;10.580;2023-04-03T16:21:01;17.20;84.40
35129;DHT22;21301;43.626;10.580;2023-04-03T16:23:27;17.10;83.80
35129;DHT22;21301;43.626;10.580;2023-04-03T16:25:53;17.10;83.80
35129;DHT22;21301;43.626;10.580;2023-04-03T16:28:19;17.00;84.40
35129;DHT22;21301;43.626;10.580;2023-04-03T16:30:45;17.10;84.70
35129;DHT22;21301;43.626;10.580;2023-04-03T16:33:12;16.90;84.30
35129;DHT22;21301;43.626;10.580;2023-04-03T16:35:39;16.90;84.60
35129;DHT22;21301;43.626;10.580;2023-04-03T16:38:07;16.90;85.00
35129;DHT22;21301;43.626;10.580;2023-04-03T16:40:33;16.90;85.60
35129;DHT22;21301;43.626;10.580;2023-04-03T16:43:01;16.80;86.10
35129;DHT22;21301;43.626;10.580;2023-04-03T16:45:27;16.70;85.90
35129;DHT22;21301;43.626;10.580;2023-04-03T16:47:53;16.50;85.90
35129;DHT22;21301;43.626;10.580;2023-04-03T16:50:19;16.40;85.90
35129;DHT22;21301;43.626;10.580;2023-04-03T16:52:48;16.30;86.30
35129;DHT22;21301;43.626;10.580;2023-04-03T16:55:13;16.30;86.60
35129;DHT22;21301;43.626;10.580;2023-04-03T16:57:39;16.20;87.00
35129;DHT22;21301;43.626;10.580;2023-04-03T17:00:06;16.20;87.10
35129;DHT22;21301;43.626;10.580;2023-04-03T17:02:32;16.00;87.00
35129;DHT22;21301;43.626;10.580;2023-04-03T17:04:58;15.90;87.50
35129;DHT22;21301;43.626;10.580;2023-04-03T17:07:24;15.80;86.90
35129;DHT22;21301;43.626;10.580;2023-04-03T17:09:51;15.70;87.20
35129;DHT22;21301;43.626;10.580;2023-04-03T17:12:20;15.70;87.40
35129;DHT22;21301;43.626;10.580;2023-04-03T17:14:46;15.50;87.70
35129;DHT22;21301;43.626;10.580;2023-04-03T17:17:15;15.40;87.90
35129;DHT22;21301;43.626;10.580;2023-04-03T17:19:41;15.40;87.90
35129;DHT22;21301;43.626;10.580;2023-04-03T17:22:08;15.30;88.20
35129;DHT22;21301;43.626;10.580;2023-04-03T17:24:35;15.20;88.20
35129;DHT22;21301;43.626;10.580;2023-04-03T17:27:02;15.10;88.40
35129;DHT22;21301;43.626;10.580;2023-04-03T17:29:28;14.90;88.50
35129;DHT22;21301;43.626;10.580;2023-04-03T17:31:54;14.90;88.80
35129;DHT22;21301;43.626;10.580;2023-04-03T17:34:20;14.80;89.00
35129;DHT22;21301;43.626;10.580;2023-04-03T17:36:46;14.70;89.30
35129;DHT22;21301;43.626;10.580;2023-04-03T17:39:12;14.70;89.40
35129;DHT22;21301;43.626;10.580;2023-04-03T17:41:38;14.60;89.80